createdAt,value
2018-03-29T00:00:33.809Z,6.90
2018-03-29T00:03:02.564Z,6.80
2018-03-29T00:05:30.016Z,6.80
2018-03-29T00:07:57.471Z,6.80
2018-03-29T00:10:24.904Z,6.80
2018-03-29T00:12:52.348Z,6.90
2018-03-29T00:15:19.806Z,6.90
2018-03-29T00:17:47.358Z,6.90
2018-03-29T00:20:14.811Z,6.90
2018-03-29T00:22:42.260Z,6.90
2018-03-29T00:25:09.717Z,6.90
2018-03-29T00:27:37.168Z,6.80
2018-03-29T00:30:04.606Z,6.80
2018-03-29T00:32:32.060Z,6.80
2018-03-29T00:34:59.489Z,6.70
2018-03-29T00:37:26.927Z,6.70
2018-03-29T00:39:54.382Z,6.70
2018-03-29T00:42:21.804Z,6.70
2018-03-29T00:44:49.259Z,6.60
2018-03-29T00:47:16.690Z,6.60
2018-03-29T00:49:44.132Z,6.60
2018-03-29T00:52:11.612Z,6.60
2018-03-29T00:54:39.046Z,6.60
2018-03-29T00:57:06.522Z,6.60
2018-03-29T00:59:33.975Z,6.60
2018-03-29T01:02:01.422Z,6.60
2018-03-29T01:04:28.871Z,6.50
2018-03-29T01:06:56.304Z,6.50
2018-03-29T01:09:23.769Z,6.50
2018-03-29T01:11:51.409Z,6.50
2018-03-29T01:14:18.853Z,6.40
2018-03-29T01:16:46.316Z,6.40
2018-03-29T01:19:13.754Z,6.40
2018-03-29T01:21:41.220Z,6.40
2018-03-29T01:24:08.657Z,6.30
2018-03-29T01:26:36.733Z,6.30
2018-03-29T01:29:04.189Z,6.30
2018-03-29T01:31:31.656Z,6.30
2018-03-29T01:33:59.100Z,6.30
2018-03-29T01:36:26.546Z,6.30
2018-03-29T01:38:53.975Z,6.30
2018-03-29T01:41:21.451Z,6.30
2018-03-29T01:43:50.401Z,6.20
2018-03-29T01:46:17.857Z,6.20
2018-03-29T01:48:45.295Z,6.20
2018-03-29T01:51:12.730Z,6.20
2018-03-29T01:53:40.177Z,6.20
2018-03-29T01:56:07.639Z,6.20
2018-03-29T01:58:35.089Z,6.20
2018-03-29T02:01:02.555Z,6.20
2018-03-29T02:03:30.000Z,6.20
2018-03-29T02:05:57.473Z,6.20
2018-03-29T02:08:24.910Z,6.20
2018-03-29T02:10:52.371Z,6.20
2018-03-29T02:13:19.821Z,6.30
2018-03-29T02:15:47.253Z,6.30
2018-03-29T02:18:15.085Z,6.30
2018-03-29T02:20:42.518Z,6.30
2018-03-29T02:23:09.978Z,6.40
2018-03-29T02:25:37.414Z,6.40
2018-03-29T02:28:04.894Z,6.40
2018-03-29T02:30:32.349Z,6.40
2018-03-29T02:33:03.483Z,6.40
2018-03-29T02:35:30.932Z,6.40
2018-03-29T02:37:58.375Z,6.50
2018-03-29T02:40:25.798Z,6.50
2018-03-29T02:42:53.256Z,6.50
2018-03-29T02:45:20.694Z,6.40
2018-03-29T02:47:48.193Z,6.50
2018-03-29T02:50:15.635Z,6.50
2018-03-29T02:52:43.090Z,6.50
2018-03-29T02:55:10.558Z,6.50
2018-03-29T02:57:37.976Z,6.50
2018-03-29T03:00:05.410Z,6.50
2018-03-29T03:02:32.851Z,6.50
2018-03-29T03:05:00.393Z,6.60
2018-03-29T03:07:27.849Z,6.60
2018-03-29T03:09:58.239Z,6.60
2018-03-29T03:12:25.664Z,6.70
2018-03-29T03:14:53.139Z,6.60
2018-03-29T03:17:20.574Z,6.70
2018-03-29T03:19:48.026Z,6.70
2018-03-29T03:22:15.491Z,6.70
2018-03-29T03:24:42.950Z,6.70
2018-03-29T03:27:10.398Z,6.70
2018-03-29T03:29:37.829Z,6.70
2018-03-29T03:32:05.291Z,6.80
2018-03-29T03:34:32.729Z,6.80
2018-03-29T03:37:00.190Z,6.80
2018-03-29T03:39:27.836Z,6.70
2018-03-29T03:41:55.286Z,6.70
2018-03-29T03:44:22.759Z,6.70
2018-03-29T03:46:50.239Z,6.70
2018-03-29T03:49:17.716Z,6.60
2018-03-29T03:51:45.184Z,6.60
2018-03-29T03:54:12.633Z,6.50
2018-03-29T03:56:40.071Z,6.50
2018-03-29T03:59:07.930Z,6.50
2018-03-29T04:01:35.388Z,6.40
2018-03-29T04:04:02.848Z,6.40
2018-03-29T04:06:30.320Z,6.40
2018-03-29T04:08:57.757Z,6.30
2018-03-29T04:11:25.200Z,6.30
2018-03-29T04:13:53.426Z,6.30
2018-03-29T04:16:20.877Z,6.20
2018-03-29T04:18:48.330Z,6.20
2018-03-29T04:21:15.852Z,6.20
2018-03-29T04:23:43.283Z,6.30
2018-03-29T04:26:10.730Z,6.30
2018-03-29T04:28:38.189Z,6.30
2018-03-29T04:31:05.638Z,6.30
2018-03-29T04:33:33.091Z,6.30
2018-03-29T04:36:00.546Z,6.30
2018-03-29T04:38:27.990Z,6.20
2018-03-29T04:40:55.438Z,6.20
2018-03-29T04:43:22.889Z,6.20
2018-03-29T04:45:50.421Z,6.20
2018-03-29T04:48:17.886Z,6.30
2018-03-29T04:50:45.419Z,6.30
2018-03-29T04:53:12.843Z,6.30
2018-03-29T04:55:40.292Z,6.30
2018-03-29T04:58:07.738Z,6.30
2018-03-29T05:00:35.194Z,6.30
2018-03-29T05:03:05.682Z,6.40
2018-03-29T05:05:33.130Z,6.40
2018-03-29T05:08:00.590Z,6.40
2018-03-29T05:10:28.108Z,6.40
2018-03-29T05:12:55.587Z,6.50
2018-03-29T05:15:23.026Z,6.50
2018-03-29T05:17:50.469Z,6.50
2018-03-29T05:20:17.920Z,6.50
2018-03-29T05:22:45.425Z,6.50
2018-03-29T05:25:12.872Z,6.50
2018-03-29T05:27:45.873Z,6.50
2018-03-29T05:30:13.325Z,6.50
2018-03-29T05:32:40.908Z,6.50
2018-03-29T05:35:08.337Z,6.40
2018-03-29T05:37:35.785Z,6.40
2018-03-29T05:40:03.228Z,6.30
2018-03-29T05:42:30.671Z,6.30
2018-03-29T05:44:58.949Z,6.20
2018-03-29T05:47:26.341Z,6.20
2018-03-29T05:49:53.805Z,6.20
2018-03-29T05:52:21.270Z,6.20
2018-03-29T05:54:48.689Z,6.20
2018-03-29T05:57:16.133Z,6.20
2018-03-29T05:59:43.698Z,6.20
2018-03-29T06:02:11.143Z,6.20
2018-03-29T06:04:39.374Z,6.30
2018-03-29T06:07:06.823Z,6.20
2018-03-29T06:09:34.287Z,6.30
2018-03-29T06:12:01.761Z,6.30
2018-03-29T06:14:34.767Z,6.30
2018-03-29T06:17:02.190Z,6.30
2018-03-29T06:19:30.407Z,6.30
2018-03-29T06:21:57.906Z,6.30
2018-03-29T06:24:25.305Z,6.40
2018-03-29T06:26:52.766Z,6.30
2018-03-29T06:29:20.575Z,6.40
2018-03-29T06:31:47.997Z,6.40
2018-03-29T06:34:15.443Z,6.40
2018-03-29T06:36:42.964Z,6.50
2018-03-29T06:39:10.414Z,6.50
2018-03-29T06:41:40.727Z,6.60
2018-03-29T06:44:08.153Z,6.60
2018-03-29T06:46:35.610Z,6.80
2018-03-29T06:49:03.123Z,6.90
2018-03-29T06:51:30.633Z,7.00
2018-03-29T06:53:59.546Z,7.00
2018-03-29T06:56:26.966Z,7.10
2018-03-29T06:58:55.014Z,7.20
2018-03-29T07:01:22.469Z,7.20
2018-03-29T07:03:50.048Z,7.20
2018-03-29T07:06:17.488Z,7.20
2018-03-29T07:08:45.121Z,7.30
2018-03-29T07:11:12.578Z,7.30
2018-03-29T07:13:40.410Z,7.40
2018-03-29T07:16:07.882Z,7.50
2018-03-29T07:18:35.338Z,7.60
2018-03-29T07:21:02.906Z,7.70
2018-03-29T07:23:30.347Z,7.70
2018-03-29T07:25:57.792Z,7.80
2018-03-29T07:28:25.242Z,7.70
2018-03-29T07:30:52.758Z,7.70
2018-03-29T07:33:21.709Z,7.60
2018-03-29T07:35:49.502Z,7.60
2018-03-29T07:38:16.940Z,7.70
2018-03-29T07:40:44.403Z,7.80
2018-03-29T07:43:11.840Z,7.90
2018-03-29T07:45:39.286Z,7.90
2018-03-29T07:48:07.508Z,8.50
2018-03-29T07:50:34.945Z,8.40
2018-03-29T07:53:02.733Z,9.00
2018-03-29T07:55:30.168Z,9.30
2018-03-29T07:57:57.821Z,9.80
2018-03-29T08:00:25.233Z,10.30
2018-03-29T08:02:52.709Z,11.00
2018-03-29T08:05:20.164Z,11.50
2018-03-29T08:07:47.701Z,12.00
2018-03-29T08:10:15.137Z,12.40
2018-03-29T08:12:42.613Z,12.70
2018-03-29T08:15:10.067Z,12.40
2018-03-29T08:17:37.520Z,11.50
2018-03-29T08:20:05.165Z,11.10
2018-03-29T08:22:33.389Z,11.30
2018-03-29T08:25:00.848Z,11.30
2018-03-29T08:27:28.292Z,11.80
2018-03-29T08:29:55.737Z,11.70
2018-03-29T08:32:23.181Z,11.10
2018-03-29T08:34:50.631Z,10.60
2018-03-29T08:37:18.081Z,10.10
2018-03-29T08:39:45.554Z,9.90
2018-03-29T08:42:13.009Z,9.70
2018-03-29T08:44:40.651Z,10.00
2018-03-29T08:47:08.088Z,10.70
2018-03-29T08:49:35.546Z,11.10
2018-03-29T08:52:02.976Z,11.60
2018-03-29T08:54:30.442Z,11.50
2018-03-29T08:56:57.877Z,11.00
2018-03-29T08:59:25.416Z,10.50
2018-03-29T09:01:52.842Z,10.20
2018-03-29T09:04:20.296Z,10.60
2018-03-29T09:06:48.325Z,11.50
2018-03-29T09:09:15.809Z,11.50
2018-03-29T09:11:43.278Z,11.00
2018-03-29T09:14:10.724Z,10.60
2018-03-29T09:16:38.182Z,10.10
2018-03-29T09:19:05.697Z,10.30
2018-03-29T09:21:33.079Z,11.70
2018-03-29T09:24:00.662Z,13.10
2018-03-29T09:26:28.111Z,14.10
2018-03-29T09:28:55.544Z,13.70
2018-03-29T09:31:23.017Z,14.40
2018-03-29T09:33:50.573Z,15.20
2018-03-29T09:36:18.249Z,16.00
2018-03-29T09:38:45.693Z,16.40
2018-03-29T09:41:13.125Z,16.50
2018-03-29T09:43:40.574Z,16.30
2018-03-29T09:46:08.036Z,16.30
2018-03-29T09:48:35.770Z,16.80
2018-03-29T09:51:03.266Z,16.80
2018-03-29T09:53:30.781Z,16.80
2018-03-29T09:55:58.564Z,16.70
2018-03-29T09:58:26.038Z,16.50
2018-03-29T10:01:08.830Z,15.90
2018-03-29T10:03:39.045Z,15.00
2018-03-29T10:06:06.506Z,14.90
2018-03-29T10:08:34.218Z,15.30
2018-03-29T10:11:01.667Z,16.40
2018-03-29T10:13:29.121Z,17.40
2018-03-29T10:15:56.557Z,17.50
2018-03-29T10:18:23.999Z,18.00
2018-03-29T10:20:51.643Z,18.70
2018-03-29T10:23:19.493Z,18.80
2018-03-29T10:25:47.153Z,18.90
2018-03-29T10:28:14.684Z,18.70
2018-03-29T10:30:42.997Z,18.40
2018-03-29T10:33:10.452Z,18.30
2018-03-29T10:35:37.885Z,18.20
2018-03-29T10:38:12.193Z,18.20
2018-03-29T10:40:39.805Z,17.90
2018-03-29T10:43:07.345Z,18.10
2018-03-29T10:45:34.799Z,18.20
2018-03-29T10:48:03.981Z,18.80
2018-03-29T10:50:38.276Z,19.10
2018-03-29T10:53:05.709Z,17.90
2018-03-29T10:55:33.148Z,16.40
2018-03-29T10:58:00.982Z,16.30
2018-03-29T11:00:28.381Z,16.50
2018-03-29T11:02:57.210Z,16.80
2018-03-29T11:05:24.837Z,17.40
2018-03-29T11:07:52.621Z,18.10
2018-03-29T11:10:20.111Z,18.00
2018-03-29T11:12:47.966Z,17.10
2018-03-29T11:15:15.450Z,17.20
2018-03-29T11:17:42.886Z,18.00
2018-03-29T11:20:10.329Z,18.30
2018-03-29T11:22:37.782Z,18.40
2018-03-29T11:25:05.262Z,18.70
2018-03-29T11:27:32.825Z,19.20
2018-03-29T11:30:00.301Z,19.30
2018-03-29T11:32:27.763Z,19.30
2018-03-29T11:34:55.396Z,19.60
2018-03-29T11:37:22.846Z,19.70
2018-03-29T11:39:50.305Z,19.60
2018-03-29T11:42:17.917Z,19.30
2018-03-29T11:44:45.765Z,19.10
2018-03-29T11:47:13.229Z,19.30
2018-03-29T11:49:40.825Z,20.00
2018-03-29T11:52:08.664Z,20.20
2018-03-29T11:54:36.107Z,20.60
2018-03-29T11:57:03.770Z,20.90
2018-03-29T11:59:31.439Z,21.30
2018-03-29T12:01:59.028Z,21.30
2018-03-29T12:04:26.509Z,21.40
2018-03-29T12:06:53.945Z,21.60
2018-03-29T12:09:21.378Z,21.70
2018-03-29T12:11:48.843Z,21.90
2018-03-29T12:14:16.369Z,21.70
2018-03-29T12:16:44.585Z,21.50
2018-03-29T12:19:12.257Z,21.40
2018-03-29T12:21:39.719Z,21.50
2018-03-29T12:24:07.174Z,21.20
2018-03-29T12:26:34.606Z,21.00
2018-03-29T12:29:02.421Z,21.10
2018-03-29T12:31:29.926Z,20.70
2018-03-29T12:33:58.871Z,19.20
2018-03-29T12:36:26.394Z,19.20
2018-03-29T12:38:54.594Z,17.60
2018-03-29T12:41:22.068Z,17.50
2018-03-29T12:43:49.502Z,16.60
2018-03-29T12:46:16.933Z,16.00
2018-03-29T12:48:44.781Z,15.70
2018-03-29T12:51:12.241Z,16.60
2018-03-29T12:53:39.732Z,17.80
2018-03-29T12:56:19.249Z,18.50
2018-03-29T12:58:46.712Z,18.70
2018-03-29T13:01:14.140Z,19.20
2018-03-29T13:03:41.594Z,19.90
2018-03-29T13:06:09.111Z,20.20
2018-03-29T13:08:36.555Z,20.60
2018-03-29T13:11:04.098Z,20.60
2018-03-29T13:13:31.541Z,20.80
2018-03-29T13:15:58.990Z,20.60
2018-03-29T13:18:26.448Z,20.10
2018-03-29T13:20:53.900Z,19.10
2018-03-29T13:23:21.529Z,18.00
2018-03-29T13:25:48.965Z,18.30
2018-03-29T13:28:16.409Z,19.10
2018-03-29T13:30:43.864Z,19.60
2018-03-29T13:33:11.309Z,19.80
2018-03-29T13:35:38.757Z,20.40
2018-03-29T13:38:06.598Z,21.00
2018-03-29T13:40:34.039Z,21.20
2018-03-29T13:43:01.551Z,20.70
2018-03-29T13:45:28.985Z,20.00
2018-03-29T13:48:00.720Z,18.80
2018-03-29T13:50:28.166Z,17.70
2018-03-29T13:52:55.605Z,16.70
2018-03-29T13:55:23.057Z,16.00
2018-03-29T13:57:50.893Z,15.40
2018-03-29T14:00:18.328Z,14.70
2018-03-29T14:02:45.765Z,14.20
2018-03-29T14:05:13.217Z,13.80
2018-03-29T14:07:40.666Z,13.50
2018-03-29T14:10:08.117Z,13.10
2018-03-29T14:12:35.800Z,12.90
2018-03-29T14:15:03.214Z,12.80
2018-03-29T14:17:30.791Z,13.00
2018-03-29T14:19:58.404Z,14.40
2018-03-29T14:22:25.843Z,16.00
2018-03-29T14:24:53.278Z,17.00
2018-03-29T14:27:20.740Z,16.90
2018-03-29T14:29:48.189Z,17.20
2018-03-29T14:32:15.703Z,17.80
2018-03-29T14:34:43.324Z,18.20
2018-03-29T14:37:10.772Z,18.80
2018-03-29T14:39:38.229Z,19.40
2018-03-29T14:42:05.696Z,19.40
2018-03-29T14:44:33.130Z,18.50
2018-03-29T14:47:00.587Z,17.30
2018-03-29T14:49:28.803Z,15.80
2018-03-29T14:51:56.274Z,15.70
2018-03-29T14:54:24.329Z,15.60
2018-03-29T14:56:51.757Z,15.20
2018-03-29T14:59:19.572Z,14.50
2018-03-29T15:01:47.241Z,14.20
2018-03-29T15:04:14.847Z,13.80
2018-03-29T15:06:42.297Z,13.60
2018-03-29T15:09:09.724Z,13.40
2018-03-29T15:11:37.504Z,13.30
2018-03-29T15:14:04.935Z,13.30
2018-03-29T15:16:32.389Z,13.00
2018-03-29T15:18:59.830Z,12.90
2018-03-29T15:21:28.165Z,12.70
2018-03-29T15:23:55.603Z,12.70
2018-03-29T15:26:23.262Z,12.80
2018-03-29T15:28:50.661Z,12.80
2018-03-29T15:31:18.111Z,12.80
2018-03-29T15:33:45.550Z,12.80
2018-03-29T15:36:13.039Z,12.70
2018-03-29T15:38:40.805Z,12.70
2018-03-29T15:41:08.450Z,12.70
2018-03-29T15:43:35.906Z,12.60
2018-03-29T15:46:03.343Z,12.50
2018-03-29T15:48:30.999Z,12.60
2018-03-29T15:50:58.430Z,13.00
2018-03-29T15:53:26.010Z,13.60
2018-03-29T15:55:53.457Z,14.00
2018-03-29T15:58:20.910Z,14.20
2018-03-29T16:00:48.360Z,14.60
2018-03-29T16:03:15.823Z,15.10
2018-03-29T16:05:43.294Z,15.40
2018-03-29T16:08:10.738Z,15.60
2018-03-29T16:10:38.173Z,15.70
2018-03-29T16:13:05.627Z,15.60
2018-03-29T16:15:33.067Z,15.50
2018-03-29T16:18:07.273Z,15.40
2018-03-29T16:20:34.724Z,15.50
2018-03-29T16:23:02.572Z,15.50
2018-03-29T16:25:30.067Z,15.40
2018-03-29T16:27:57.516Z,15.30
2018-03-29T16:30:25.045Z,15.10
2018-03-29T16:32:52.506Z,15.00
2018-03-29T16:35:19.951Z,15.00
2018-03-29T16:37:47.391Z,14.90
2018-03-29T16:40:15.602Z,14.10
2018-03-29T16:42:43.046Z,14.00
2018-03-29T16:45:10.485Z,13.90
2018-03-29T16:47:38.701Z,13.30
2018-03-29T16:50:06.138Z,13.30
2018-03-29T16:52:33.660Z,13.20
2018-03-29T16:55:01.117Z,13.00
2018-03-29T16:57:28.874Z,12.70
2018-03-29T16:59:56.316Z,12.50
2018-03-29T17:02:23.766Z,12.30
2018-03-29T17:04:51.205Z,12.10
2018-03-29T17:07:18.700Z,12.00
2018-03-29T17:09:46.168Z,11.80
2018-03-29T17:12:13.959Z,11.70
2018-03-29T17:14:41.398Z,11.60
2018-03-29T17:17:09.700Z,11.60
2018-03-29T17:19:37.142Z,11.50
2018-03-29T17:22:04.584Z,11.30
2018-03-29T17:24:32.037Z,11.30
2018-03-29T17:26:59.481Z,11.30
2018-03-29T17:29:26.939Z,11.30
2018-03-29T17:31:54.480Z,11.30
2018-03-29T17:34:22.114Z,11.30
2018-03-29T17:36:49.634Z,11.20
2018-03-29T17:39:17.580Z,11.10
2018-03-29T17:41:45.110Z,11.10
2018-03-29T17:44:12.545Z,11.00
2018-03-29T17:46:40.744Z,10.80
2018-03-29T17:49:08.231Z,10.80
2018-03-29T17:51:35.684Z,10.70
2018-03-29T17:54:03.558Z,10.60
2018-03-29T17:56:31.129Z,10.60
2018-03-29T17:58:58.566Z,10.50
2018-03-29T18:01:26.111Z,10.40
2018-03-29T18:03:53.559Z,10.30
2018-03-29T18:06:21.577Z,10.20
2018-03-29T18:08:49.194Z,10.10
2018-03-29T18:11:16.737Z,10.10
2018-03-29T18:13:44.571Z,10.00
2018-03-29T18:16:12.453Z,9.90
2018-03-29T18:18:40.222Z,9.90
2018-03-29T18:21:07.659Z,9.80
2018-03-29T18:23:35.305Z,9.70
2018-03-29T18:26:02.753Z,9.70
2018-03-29T18:28:30.264Z,9.60
2018-03-29T18:30:57.757Z,9.60
2018-03-29T18:33:25.204Z,9.60
2018-03-29T18:35:52.668Z,9.50
2018-03-29T18:38:20.137Z,9.50
2018-03-29T18:40:47.585Z,9.30
2018-03-29T18:43:15.024Z,9.20
2018-03-29T18:45:45.789Z,9.20
2018-03-29T18:48:13.460Z,9.10
2018-03-29T18:50:40.940Z,9.00
2018-03-29T18:53:08.440Z,9.00
2018-03-29T18:55:36.238Z,8.90
2018-03-29T18:58:03.684Z,8.80
2018-03-29T19:00:31.137Z,8.80
2018-03-29T19:03:07.849Z,8.70
2018-03-29T19:05:35.292Z,8.70
2018-03-29T19:08:02.742Z,8.60
2018-03-29T19:10:30.178Z,8.60
2018-03-29T19:12:58.145Z,8.50
2018-03-29T19:15:25.593Z,8.50
2018-03-29T19:17:53.033Z,8.50
2018-03-29T19:20:20.464Z,8.50
2018-03-29T19:22:47.935Z,8.40
2018-03-29T19:25:15.370Z,8.40
2018-03-29T19:27:42.837Z,8.30
2018-03-29T19:30:10.274Z,8.30
2018-03-29T19:32:37.694Z,8.20
2018-03-29T19:35:05.370Z,8.10
2018-03-29T19:37:33.561Z,8.10
2018-03-29T19:40:01.761Z,8.00
2018-03-29T19:42:29.211Z,8.00
2018-03-29T19:44:56.649Z,8.00
2018-03-29T19:47:24.092Z,8.00
2018-03-29T19:49:51.538Z,8.00
2018-03-29T19:52:18.979Z,7.90
2018-03-29T19:54:46.431Z,7.90
2018-03-29T19:57:13.867Z,7.80
2018-03-29T19:59:41.385Z,7.80
2018-03-29T20:02:08.928Z,7.80
2018-03-29T20:04:36.365Z,7.80
2018-03-29T20:07:03.821Z,7.70
2018-03-29T20:09:32.046Z,7.60
2018-03-29T20:11:59.729Z,7.60
2018-03-29T20:14:27.169Z,7.50
2018-03-29T20:16:54.757Z,7.50
2018-03-29T20:19:22.158Z,7.40
2018-03-29T20:21:50.368Z,7.30
2018-03-29T20:24:17.824Z,7.30
2018-03-29T20:26:45.269Z,7.30
2018-03-29T20:29:12.718Z,7.30
2018-03-29T20:31:40.178Z,7.30
2018-03-29T20:34:07.782Z,7.30
2018-03-29T20:36:35.373Z,7.40
2018-03-29T20:39:02.807Z,7.40
2018-03-29T20:41:30.265Z,7.40
2018-03-29T20:43:57.725Z,7.40
2018-03-29T20:46:25.164Z,7.40
2018-03-29T20:48:52.617Z,7.40
2018-03-29T20:51:20.155Z,7.30
2018-03-29T20:53:47.590Z,7.30
2018-03-29T20:56:15.122Z,7.30
2018-03-29T20:58:42.545Z,7.30
2018-03-29T21:01:10.010Z,7.20
2018-03-29T21:03:37.450Z,7.10
2018-03-29T21:06:04.890Z,6.90
2018-03-29T21:08:32.342Z,6.80
2018-03-29T21:10:59.773Z,6.80
2018-03-29T21:13:27.286Z,6.70
2018-03-29T21:15:55.560Z,6.60
2018-03-29T21:18:23.019Z,6.60
2018-03-29T21:20:50.478Z,6.60
2018-03-29T21:23:17.909Z,6.60
2018-03-29T21:25:45.800Z,6.60
2018-03-29T21:28:16.597Z,6.50
2018-03-29T21:30:44.301Z,6.50
2018-03-29T21:33:11.755Z,6.50
2018-03-29T21:35:39.198Z,6.40
2018-03-29T21:38:06.818Z,6.40
2018-03-29T21:40:36.908Z,6.40
2018-03-29T21:43:04.485Z,6.40
2018-03-29T21:45:31.926Z,6.40
2018-03-29T21:48:06.878Z,6.40
2018-03-29T21:50:34.322Z,6.40
2018-03-29T21:53:03.259Z,6.40
2018-03-29T21:55:30.685Z,6.30
2018-03-29T21:57:58.140Z,6.30
2018-03-29T22:00:25.586Z,6.30
2018-03-29T22:02:53.054Z,6.30
2018-03-29T22:05:20.498Z,6.20
2018-03-29T22:07:47.938Z,6.20
2018-03-29T22:10:15.385Z,6.10
2018-03-29T22:12:42.847Z,6.10
2018-03-29T22:15:10.291Z,6.20
2018-03-29T22:17:37.725Z,6.20
2018-03-29T22:20:05.187Z,6.20
2018-03-29T22:22:32.634Z,6.20
2018-03-29T22:25:00.075Z,6.20
2018-03-29T22:27:27.555Z,6.10
2018-03-29T22:29:55.158Z,6.10
2018-03-29T22:32:22.630Z,6.00
2018-03-29T22:34:50.091Z,6.00
2018-03-29T22:37:17.510Z,6.00
2018-03-29T22:39:44.957Z,5.90
2018-03-29T22:42:12.393Z,5.90
2018-03-29T22:44:39.849Z,5.90
2018-03-29T22:47:07.286Z,5.90
2018-03-29T22:49:34.729Z,5.90
2018-03-29T22:52:02.181Z,5.90
2018-03-29T22:54:29.626Z,5.90
2018-03-29T22:56:57.074Z,5.90
2018-03-29T22:59:25.285Z,6.00
2018-03-29T23:01:52.718Z,6.00
2018-03-29T23:04:20.181Z,6.10
2018-03-29T23:06:47.879Z,6.10
2018-03-29T23:09:15.312Z,6.10
2018-03-29T23:11:42.770Z,6.10
2018-03-29T23:14:10.233Z,6.20
2018-03-29T23:16:38.565Z,6.10
2018-03-29T23:19:06.050Z,6.20
2018-03-29T23:21:33.506Z,6.10
2018-03-29T23:24:00.964Z,6.10
2018-03-29T23:26:28.414Z,6.10
2018-03-29T23:28:55.846Z,6.10
2018-03-29T23:31:23.312Z,6.00
2018-03-29T23:33:50.742Z,6.00
2018-03-29T23:36:18.175Z,5.90
2018-03-29T23:38:45.630Z,5.90
2018-03-29T23:41:13.069Z,5.90
2018-03-29T23:43:40.535Z,5.90
2018-03-29T23:46:08.277Z,5.80
2018-03-29T23:48:35.729Z,5.70
2018-03-29T23:51:03.181Z,5.70
2018-03-29T23:53:30.617Z,5.70
2018-03-29T23:55:58.072Z,5.60
2018-03-29T23:58:25.512Z,5.70
